Time;durP1;ratioP1;P1;durP2;ratioP2;P2;SDS_P1;SDS_P2;PMS_P1;PMS_P2;Temp;Humidity;BMP_temperature;BMP_pressure;BME280_temperature;BME280_humidity;BME280_pressure;Samples;Min_cycle;Max_cycle;Signal;HPM_P1;HPM_P2
2022/11/08 00:03:10;;;;;;;;;;;10.90;99.90;;;9.48;100.00;100764.47;4982755;28;20060;-87
2022/11/08 00:14:20;;;;;;;15.93;2.95;;;10.70;99.90;;;9.42;100.00;100759.47;5018112;28;20125;-87
2022/11/08 00:16:46;;;;;;;14.77;3.03;;;10.70;99.90;;;9.41;100.00;100753.34;4984275;28;20117;-87
2022/11/08 00:19:17;;;;;;;11.00;2.88;;;10.70;99.90;;;9.39;100.00;100760.44;4987280;28;20056;-87
2022/11/08 00:21:43;;;;;;;13.07;2.75;;;10.70;99.90;;;9.42;100.00;100760.31;4984421;28;20041;-87
2022/11/08 00:24:09;;;;;;;9.50;2.63;;;10.70;99.90;;;9.39;100.00;100765.69;4990372;28;20029;-87
2022/11/08 00:26:35;;;;;;;12.90;3.25;;;10.70;99.90;;;9.39;100.00;100765.69;4983747;28;20038;-86
2022/11/08 00:29:10;;;;;;;15.75;3.22;;;;;;;9.41;100.00;100768.25;5000638;28;20109;-86
2022/11/08 00:31:38;;;;;;;20.23;3.17;;;10.70;99.90;;;9.43;100.00;100755.91;5000070;28;20040;-88
2022/11/08 00:34:04;;;;;;;12.13;2.80;;;10.70;99.90;;;9.42;100.00;100760.31;4983506;28;20120;-87
2022/11/08 00:36:30;;;;;;;12.32;3.13;;;10.70;99.90;;;9.45;100.00;100761.97;4988599;28;20391;-87
2022/11/08 00:39:03;;;;;;;14.93;3.00;;;10.70;99.90;;;9.43;100.00;100764.66;4983700;28;20465;-87
2022/11/08 00:41:29;;;;;;;12.38;2.92;;;10.70;99.90;;;9.43;100.00;100755.91;4978383;28;20117;-89
2022/11/08 00:43:57;;;;;;;12.40;2.95;;;;;;;9.39;100.00;100749.91;5006463;28;20042;-87
2022/11/08 00:46:36;;;;;;;12.10;3.20;;;10.70;99.90;;;9.40;100.00;100759.53;4997120;28;20034;-88
2022/11/08 00:49:11;;;;;;;10.98;3.45;;;;;;;9.39;100.00;100752.53;4982969;28;20030;-87
2022/11/08 00:51:37;;;;;;;15.95;2.78;;;10.60;99.90;;;9.39;100.00;100744.66;4999483;28;20061;-86
2022/11/08 00:54:07;;;;;;;13.50;3.25;;;10.70;99.90;;;9.43;100.00;100750.66;4983371;28;20030;-87
2022/11/08 00:56:42;;;;;;;9.70;3.05;;;10.70;99.90;;;9.49;100.00;100760.94;5001026;28;20037;-87
2022/11/08 00:59:18;;;;;;;13.00;2.97;;;10.80;99.90;;;9.54;100.00;100756.31;4990517;28;20035;-87
2022/11/08 01:01:47;;;;;;;9.77;2.90;;;10.80;99.90;;;9.61;100.00;100755.16;5002945;28;20021;-87
2022/11/08 01:04:24;;;;;;;13.07;3.15;;;10.90;99.90;;;9.70;100.00;100760.94;5018491;28;20376;-87
2022/11/08 01:06:50;;;;;;;13.73;2.85;;;10.90;99.90;;;9.75;100.00;100759.81;4992293;28;20026;-87
2022/11/08 01:09:16;;;;;;;14.52;2.80;;;;;;;9.81;100.00;100756.94;4978509;28;20022;-87
2022/11/08 01:11:50;;;;;;;9.32;2.45;;;11.00;99.90;;;9.85;100.00;100749.78;4995900;28;20088;-87
2022/11/08 01:14:18;;;;;;;10.25;2.47;;;11.10;99.90;;;9.86;100.00;100748.84;4995079;28;20039;-87
2022/11/08 01:16:46;;;;;;;13.60;2.80;;;11.10;99.90;;;9.86;100.00;100749.69;5002028;28;20042;-87
2022/11/08 01:19:19;;;;;;;10.70;2.38;;;11.10;99.90;;;9.85;100.00;100747.16;4983153;28;20065;-88
2022/11/08 01:21:46;;;;;;;11.80;2.58;;;11.10;99.90;;;9.82;100.00;100744.63;4983842;28;20037;-87
2022/11/08 01:24:11;;;;;;;17.42;2.83;;;11.00;99.90;;;9.78;100.00;100743.06;4997957;28;20110;-87
2022/11/08 01:26:37;;;;;;;11.75;2.65;;;11.00;99.90;;;9.75;100.00;100741.41;4983650;28;20025;-87
2022/11/08 01:29:12;;;;;;;11.80;3.17;;;11.00;99.90;;;9.74;100.00;100749.38;4977347;28;20030;-87
2022/11/08 01:31:37;;;;;;;8.68;2.47;;;11.00;99.90;;;9.71;100.00;100752.13;4978311;28;20027;-86
2022/11/08 01:34:05;;;;;;;12.07;2.95;;;11.00;99.90;;;9.69;100.00;100746.09;4983294;28;20054;-87
2022/11/08 01:36:40;;;;;;;12.52;2.88;;;10.90;99.90;;;9.71;100.00;100747.72;4983012;28;20096;-87
2022/11/08 01:39:06;;;;;;;12.35;3.42;;;11.00;99.90;;;9.71;100.00;100746.88;4979354;28;20021;-87
2022/11/08 01:41:34;;;;;;;13.13;3.03;;;11.00;99.90;;;9.75;100.00;100745.84;4982368;28;20029;-88
2022/11/08 01:44:36;;;;;;;13.70;2.90;;;11.00;99.90;;;9.74;100.00;100733.59;4983334;28;20068;-87
2022/11/08 01:47:04;;;;;;;12.93;2.38;;;11.00;99.90;;;9.77;100.00;100744.00;5003382;28;20030;-86
2022/11/08 01:49:47;;;;;;;13.18;3.10;;;11.00;99.90;;;9.80;100.00;100738.59;4991707;28;20038;-86
2022/11/08 01:52:45;;;;;;;15.48;3.00;;;11.00;99.90;;;9.82;100.00;100739.38;4983073;28;20490;-87
2022/11/08 01:55:49;;;;;;;11.20;2.50;;;11.00;99.90;;;9.84;100.00;100738.38;4988454;28;20026;-87
2022/11/08 01:58:23;;;;;;;12.82;2.83;;;11.10;99.90;;;9.84;100.00;100734.91;4979451;28;20052;-87
2022/11/08 02:01:10;;;;;;;13.13;2.50;;;11.10;99.90;;;9.88;100.00;100747.00;4983051;28;20030;-87
2022/11/08 02:03:40;;;;;;;14.98;3.17;;;;;;;9.94;100.00;100746.75;4981993;28;20133;-88
2022/11/08 02:06:16;;;;;;;11.02;2.88;;;11.10;99.90;;;9.95;100.00;100743.19;4998767;28;20061;-85
2022/11/08 02:08:52;;;;;;;11.90;2.72;;;11.20;99.90;;;9.96;100.00;100744.91;4992392;28;20057;-86
2022/11/08 02:11:18;;;;;;;11.73;2.53;;;11.20;99.90;;;9.95;100.00;100737.91;4981973;28;20499;-86
2022/11/08 02:13:44;;;;;;;11.23;2.80;;;11.20;99.90;;;9.99;100.00;100733.38;4990074;28;20459;-87
2022/11/08 02:16:15;;;;;;;8.52;2.60;;;11.20;99.90;;;10.01;100.00;100726.28;4975276;28;20026;-86
2022/11/08 02:18:46;;;;;;;11.98;2.75;;;11.20;99.90;;;10.01;100.00;100732.38;4976090;28;20041;-85
2022/11/08 02:21:49;;;;;;;14.95;3.00;;;11.30;99.90;;;10.04;100.00;100737.53;4982701;28;20061;-86
2022/11/08 02:24:21;;;;;;;11.13;2.33;;;11.30;99.90;;;10.03;100.00;100733.19;4980370;28;20038;-86
2022/11/08 02:26:50;;;;;;;16.65;2.63;;;11.30;99.90;;;10.07;100.00;100733.91;4998705;28;20052;-85
2022/11/08 02:29:30;;;;;;;12.68;2.40;;;11.30;99.90;;;10.10;100.00;100725.88;4988636;28;20057;-86
2022/11/08 02:31:59;;;;;;;12.88;2.65;;;11.30;99.90;;;10.12;100.00;100728.44;4981283;28;20026;-85
2022/11/08 02:34:37;;;;;;;7.53;2.38;;;11.40;99.90;;;10.15;100.00;100730.91;4979768;28;20026;-86
2022/11/08 02:37:16;;;;;;;12.65;2.63;;;11.40;99.90;;;10.19;100.00;100735.13;4982377;28;20033;-85
2022/11/08 02:39:49;;;;;;;9.25;2.70;;;;;;;10.22;100.00;100729.75;4980871;28;20030;-86
2022/11/08 02:42:19;;;;;;;10.77;2.63;;;11.40;99.90;;;10.24;100.00;100727.91;4996272;28;20040;-86
2022/11/08 02:44:46;;;;;;;12.30;2.60;;;11.50;99.90;;;10.28;100.00;100737.38;4998741;28;20038;-87
2022/11/08 02:47:18;;;;;;;16.50;2.65;;;;;;;10.31;100.00;100725.88;4998402;28;20109;-86
2022/11/08 02:49:46;;;;;;;9.98;2.53;;;11.50;99.90;;;10.32;100.00;100731.03;4996189;28;20026;-85
2022/11/08 02:52:15;;;;;;;8.85;2.25;;;11.50;99.90;;;10.33;100.00;100724.03;4985074;28;20030;-86
2022/11/08 02:54:48;;;;;;;11.50;2.60;;;11.60;99.90;;;10.36;100.00;100724.72;4982021;28;20026;-85
2022/11/08 02:57:14;;;;;;;13.35;2.67;;;11.60;99.90;;;10.36;100.00;100715.97;4979601;28;20033;-86
2022/11/08 02:59:40;;;;;;;13.38;2.58;;;11.60;99.90;;;10.39;100.00;100724.59;4981237;28;20574;-85
2022/11/08 03:02:06;;;;;;;12.40;2.40;;;11.60;99.90;;;10.38;100.00;100725.50;4979793;28;20046;-86
2022/11/08 03:04:41;;;;;;;8.32;2.33;;;11.60;99.90;;;10.40;100.00;100725.44;4982062;28;20026;-85
2022/11/08 03:07:06;;;;;;;12.18;3.38;;;11.50;99.90;;;10.35;100.00;100728.28;4984062;28;20050;-87
2022/11/08 03:09:32;;;;;;;9.60;2.40;;;11.50;99.90;;;10.31;100.00;100734.63;4982716;28;20342;-86
2022/11/08 03:11:58;;;;;;;9.15;2.30;;;11.50;99.90;;;10.23;100.00;100713.00;4988566;28;20589;-85
2022/11/08 03:14:44;;;;;;;;;;;;;;;;;;;;;
2022/11/08 03:17:10;;;;;;;8.93;2.30;;;;;;;10.10;100.00;100717.97;4998519;28;20022;-86
2022/11/08 03:19:36;;;;;;;12.10;2.75;;;;;;;10.03;100.00;100720.03;4998286;28;20029;-86
2022/11/08 03:22:05;;;;;;;18.00;2.60;;;11.30;99.90;;;9.99;100.00;100712.34;4993729;28;20406;-86
2022/11/08 03:24:37;;;;;;;16.02;2.60;;;;;;;9.98;100.00;100722.00;4997875;28;20060;-86
2022/11/08 03:27:07;;;;;;;9.30;2.40;;;11.20;99.90;;;9.96;100.00;100721.22;4998713;28;20030;-86
2022/11/08 03:29:41;;;;;;;10.85;2.95;;;11.20;99.90;;;9.96;100.00;100728.28;4990670;28;20037;-88
2022/11/08 03:32:06;;;;;;;13.32;3.33;;;11.10;99.90;;;9.93;100.00;100721.34;4991197;28;20080;-85
2022/11/08 03:34:32;;;;;;;6.68;2.42;;;11.10;99.90;;;9.93;100.00;100718.72;4994613;28;20018;-85
2022/11/08 03:36:59;;;;;;;14.93;2.90;;;11.10;99.90;;;9.94;100.00;100722.22;4998859;28;20030;-85
2022/11/08 03:39:24;;;;;;;10.15;2.53;;;11.10;99.90;;;9.91;100.00;100719.72;4995323;28;20026;-85
2022/11/08 03:41:50;;;;;;;17.05;3.03;;;11.10;99.90;;;9.91;100.00;100719.72;4978364;28;20063;-85
2022/11/08 03:44:20;;;;;;;7.55;2.45;;;11.10;99.90;;;9.88;100.00;100718.06;4988575;28;20562;-86
2022/11/08 03:46:46;;;;;;;15.52;2.80;;;11.10;99.90;;;9.87;100.00;100721.63;4987556;28;20109;-87
2022/11/08 03:49:12;;;;;;;9.40;2.53;;;11.00;99.90;;;9.83;100.00;100717.44;4990316;28;20022;-88
2022/11/08 03:51:38;;;;;;;10.55;2.60;;;11.00;99.90;;;9.82;100.00;100723.59;4979171;28;20077;-87
2022/11/08 03:54:06;;;;;;;9.43;2.67;;;11.00;99.90;;;9.82;100.00;100724.44;4981150;28;20461;-86
2022/11/08 03:56:40;;;;;;;12.50;2.63;;;11.00;99.90;;;9.80;100.00;100726.28;4996945;28;20510;-88
2022/11/08 03:59:06;;;;;;;11.45;2.45;;;11.00;99.90;;;9.81;100.00;100719.28;4982070;28;20053;-87
2022/11/08 04:01:32;;;;;;;13.18;2.65;;;11.00;99.90;;;9.81;100.00;100729.78;4984929;28;20032;-86
2022/11/08 04:03:57;;;;;;;16.25;2.53;;;11.00;99.90;;;9.82;100.00;100729.69;4978614;28;20034;-86
2022/11/08 04:06:31;;;;;;;18.23;2.90;;;11.00;99.90;;;9.85;100.00;100729.59;4979119;28;20258;-86
2022/11/08 04:08:57;;;;;;;15.27;2.47;;;11.00;99.90;;;9.88;100.00;100725.13;4981669;28;20058;-87
2022/11/08 04:16:58;;;;;;;12.68;2.60;;;11.10;99.90;;;9.98;100.00;100732.53;4998130;28;20073;-86
2022/11/08 04:22:15;;;;;;;12.32;2.72;;;11.20;99.90;;;10.03;100.00;100738.44;4998318;28;20044;-86
2022/11/08 04:24:41;;;;;;;13.30;2.70;;;;;;;10.03;100.00;100734.97;4978969;28;20116;-86
2022/11/08 04:27:07;;;;;;;8.77;2.47;;;11.30;99.90;;;10.03;100.00;100733.19;4997197;28;20030;-83
2022/11/08 04:29:41;;;;;;;11.98;2.63;;;11.30;99.90;;;10.09;100.00;100733.84;5011327;28;20166;-84
2022/11/08 04:32:07;;;;;;;10.65;2.35;;;11.30;99.90;;;10.09;100.00;100741.75;4993966;28;20394;-84
2022/11/08 04:34:35;;;;;;;10.32;2.30;;;11.30;99.90;;;10.12;100.00;100734.53;4978593;28;20121;-83
2022/11/08 04:37:01;;;;;;;8.70;2.60;;;11.30;99.90;;;10.13;100.00;100736.28;4979804;28;20030;-84
2022/11/08 04:39:38;;;;;;;10.45;2.75;;;11.30;99.90;;;10.12;100.00;100728.44;4999062;28;20030;-84
2022/11/08 04:42:04;;;;;;;9.20;2.33;;;11.30;99.90;;;10.13;100.00;100735.41;4996622;28;20022;-84
2022/11/08 04:44:29;;;;;;;9.23;2.30;;;11.30;99.90;;;10.12;100.00;100733.69;4996988;28;20514;-83
2022/11/08 04:47:04;;;;;;;16.10;2.55;;;11.30;99.90;;;10.12;100.00;100725.81;4983268;28;20093;-84
2022/11/08 04:49:30;;;;;;;14.05;2.60;;;11.30;99.90;;;10.10;100.00;100732.91;5016358;28;20026;-82
2022/11/08 04:51:58;;;;;;;16.42;2.65;;;11.30;99.90;;;10.09;100.00;100733.84;5014736;28;20079;-83
2022/11/08 04:54:43;;;;;;;;;;;;;;;;;;;;;
2022/11/08 04:57:10;;;;;;;14.02;2.40;;;11.30;99.90;;;10.13;100.00;100727.50;5015054;28;20032;-83
2022/11/08 04:59:36;;;;;;;11.98;2.40;;;11.40;99.90;;;10.16;100.00;100736.13;4997675;28;20022;-84
2022/11/08 05:02:02;;;;;;;13.27;2.58;;;11.40;99.90;;;10.20;100.00;100735.06;4981402;28;20040;-83
2022/11/08 05:04:27;;;;;;;13.73;2.42;;;11.40;99.90;;;10.27;100.00;100743.53;4999968;28;20446;-84
2022/11/08 05:07:01;;;;;;;10.95;2.42;;;11.40;99.90;;;10.26;100.00;100734.78;4995927;28;20034;-84
2022/11/08 05:09:29;;;;;;;12.00;2.38;;;;;;;10.29;100.00;100739.09;4999887;28;20042;-83
2022/11/08 05:11:55;;;;;;;11.60;2.38;;;11.50;99.90;;;10.26;100.00;100736.56;4997307;28;20048;-83
2022/11/08 05:14:21;;;;;;;9.63;2.25;;;11.40;99.90;;;10.21;100.00;100741.19;4982898;28;20034;-83
2022/11/08 05:16:47;;;;;;;12.55;2.70;;;11.40;99.90;;;10.17;100.00;100745.75;5018576;28;20114;-82
2022/11/08 05:19:12;;;;;;;15.95;2.78;;;11.40;99.90;;;10.16;100.00;100733.50;4997827;28;20048;-84
2022/11/08 05:24:30;;;;;;;9.25;2.20;;;11.30;99.90;;;10.03;100.00;100735.81;5000037;28;20037;-82
2022/11/08 05:26:56;;;;;;;13.38;2.42;;;11.20;99.90;;;10.00;100.00;100729.81;4999716;28;20032;-84
2022/11/08 05:29:22;;;;;;;10.38;2.50;;;11.20;99.90;;;9.96;100.00;100729.13;4983022;28;20030;-84
2022/11/08 05:31:48;;;;;;;11.23;2.70;;;11.20;99.90;;;9.94;100.00;100741.47;4998114;28;20085;-83
2022/11/08 05:34:22;;;;;;;10.98;2.60;;;11.20;99.90;;;9.94;100.00;100738.00;4981412;28;20105;-84
2022/11/08 05:36:48;;;;;;;15.90;2.72;;;11.20;99.90;;;9.98;100.00;100737.81;5000877;28;20538;-83
2022/11/08 05:39:14;;;;;;;14.77;2.50;;;11.20;99.90;;;10.01;100.00;100742.06;4983318;28;20030;-84
2022/11/08 05:41:49;;;;;;;8.93;2.30;;;11.20;99.90;;;10.03;100.00;100741.06;4997739;28;20565;-82
2022/11/08 05:44:15;;;;;;;12.25;2.67;;;11.20;99.90;;;10.07;100.00;100741.81;4999164;28;20049;-84
2022/11/08 05:46:41;;;;;;;9.77;2.55;;;11.30;99.90;;;10.06;100.00;100740.94;4981888;28;20026;-83
2022/11/08 05:49:07;;;;;;;14.25;3.03;;;11.20;99.90;;;10.04;100.00;100737.53;4998052;28;20034;-84
2022/11/08 05:51:38;;;;;;;18.52;2.92;;;11.20;99.90;;;10.00;100.00;100745.59;4998842;28;20038;-84
2022/11/08 05:54:06;;;;;;;7.50;2.47;;;11.20;99.90;;;9.91;100.00;100741.59;4979068;28;20048;-84
2022/11/08 05:56:32;;;;;;;11.70;2.88;;;11.10;99.90;;;9.84;100.00;100746.28;4997834;28;20026;-84
2022/11/08 05:58:58;;;;;;;8.60;2.88;;;11.00;99.90;;;9.78;100.00;100750.94;4998003;28;20057;-83
2022/11/08 06:01:33;;;;;;;11.25;2.58;;;11.00;99.90;;;9.67;100.00;100751.41;4982948;28;20065;-84
2022/11/08 06:03:59;;;;;;;12.88;2.97;;;10.80;99.90;;;9.54;100.00;100748.44;4998398;28;20065;-83
2022/11/08 06:06:25;;;;;;;18.08;2.92;;;10.80;99.90;;;9.45;100.00;100748.81;4981273;28;20041;-83
2022/11/08 06:08:51;;;;;;;13.23;2.90;;;10.70;99.90;;;9.35;100.00;100748.38;4988355;28;20053;-83
2022/11/08 06:11:28;;;;;;;9.73;2.60;;;10.60;99.90;;;9.26;100.00;100753.97;4981775;28;20038;-84
2022/11/08 06:14:18;;;;;;;13.63;2.47;;;10.50;99.90;;;9.18;100.00;100756.09;4998483;28;20504;-84
2022/11/08 06:16:44;;;;;;;16.80;2.70;;;10.40;99.90;;;9.13;100.00;100768.53;4998415;28;20109;-83
2022/11/08 06:19:09;;;;;;;13.13;3.45;;;10.40;99.90;;;9.07;100.00;100764.38;4996403;28;20414;-83
2022/11/08 06:21:35;;;;;;;8.95;2.60;;;10.30;99.90;;;9.01;100.00;100762.84;4981773;28;20053;-84
2022/11/08 06:24:01;;;;;;;12.18;2.70;;;10.30;99.90;;;8.99;100.00;100756.81;4981132;28;20406;-83
2022/11/08 06:26:27;;;;;;;12.77;2.95;;;10.20;99.90;;;8.99;100.00;100761.22;4981226;28;20116;-84
2022/11/08 06:29:00;;;;;;;18.48;3.35;;;10.20;99.90;;;8.99;100.00;100771.72;4996232;28;20282;-84
2022/11/08 06:31:26;;;;;;;18.60;3.17;;;10.20;99.90;;;8.98;100.00;100775.25;4997137;28;20034;-83
2022/11/08 06:33:52;;;;;;;14.98;3.10;;;10.20;99.90;;;8.97;100.00;100769.13;4997169;28;20117;-83
2022/11/08 06:36:19;;;;;;;15.57;3.17;;;10.20;99.90;;;8.94;100.00;100776.28;4980647;28;20061;-84
2022/11/08 06:38:54;;;;;;;10.40;2.88;;;10.10;99.90;;;8.97;100.00;100770.91;4997569;28;20173;-84
2022/11/08 06:41:20;;;;;;;11.63;2.92;;;10.10;99.90;;;8.96;100.00;100763.94;4995198;28;20041;-84
2022/11/08 06:43:47;;;;;;;16.70;3.35;;;10.20;99.90;;;8.98;100.00;100762.09;4996451;28;20036;-84
2022/11/08 06:46:18;;;;;;;11.48;2.58;;;10.10;99.90;;;9.01;100.00;100767.25;4996467;28;20037;-85
2022/11/08 06:48:47;;;;;;;13.52;3.05;;;10.10;99.90;;;9.03;100.00;100770.69;4977563;28;20037;-83
2022/11/08 06:51:13;;;;;;;15.18;3.33;;;10.20;99.90;;;9.07;100.00;100774.91;4993520;28;20133;-84
2022/11/08 06:53:39;;;;;;;14.32;3.72;;;10.20;99.90;;;9.13;100.00;100781.66;4993523;28;20124;-84
2022/11/08 06:56:10;;;;;;;13.18;3.13;;;10.20;99.90;;;9.20;100.00;100777.88;5013359;28;20156;-84
2022/11/08 06:58:36;;;;;;;12.88;3.15;;;10.30;99.90;;;9.24;100.00;100780.34;4996252;28;20098;-83
2022/11/08 07:01:08;;;;;;;19.63;3.22;;;10.40;99.90;;;9.32;100.00;100779.16;4992516;28;20038;-82
2022/11/08 07:03:41;;;;;;;15.40;2.92;;;10.40;99.90;;;9.41;100.00;100768.25;4994865;28;20069;-85
2022/11/08 07:06:07;;;;;;;13.23;3.03;;;10.50;99.90;;;9.47;100.00;100778.53;4978600;28;20030;-84
2022/11/08 07:08:34;;;;;;;13.05;3.28;;;10.50;99.90;;;9.53;100.00;100778.28;4995235;28;20128;-83
2022/11/08 07:11:00;;;;;;;17.67;3.33;;;10.60;99.90;;;9.58;100.00;100784.19;4996702;28;20505;-83
2022/11/08 07:13:28;;;;;;;11.48;3.03;;;10.60;99.90;;;9.64;100.00;100786.56;4994752;28;20030;-84
2022/11/08 07:15:59;;;;;;;12.80;3.28;;;10.70;99.90;;;9.77;100.00;100792.16;4978237;28;20536;-83
2022/11/08 07:18:25;;;;;;;15.45;3.15;;;10.80;99.90;;;9.84;100.00;100792.75;4996643;28;20025;-83
2022/11/08 07:20:51;;;;;;;17.45;3.10;;;10.90;99.90;;;10.70;100.00;100794.28;4980173;28;20092;-83
2022/11/08 07:23:30;;;;;;;1999.90;999.90;;;11.30;99.90;;;11.29;100.00;100792.34;4994093;28;20049;-83
2022/11/08 07:26:04;;;;;;;1999.90;999.90;;;11.60;99.90;;;12.00;100.00;100794.16;4994632;28;20046;-84
2022/11/08 07:28:30;;;;;;;17.25;3.10;;;11.90;99.90;;;11.73;97.59;100785.81;4977505;28;20505;-82
2022/11/08 07:31:10;;;;;;;11.40;2.63;;;12.00;99.90;;;11.29;98.52;100781.81;4977793;28;20111;-84
2022/11/08 07:33:35;;;;;;;13.30;3.17;;;12.00;99.90;;;11.07;100.00;100782.00;4995424;28;20033;-84
2022/11/08 07:36:02;;;;;;;18.80;3.58;;;12.00;99.90;;;10.90;100.00;100777.53;4984572;28;20023;-82
2022/11/08 07:38:28;;;;;;;16.45;3.10;;;11.90;99.90;;;10.86;100.00;100782.09;4992965;28;20034;-82
2022/11/08 07:40:58;;;;;;;13.75;2.97;;;11.80;99.90;;;10.79;100.00;100782.44;4978310;28;20037;-84
2022/11/08 07:43:26;;;;;;;12.82;3.08;;;11.80;99.90;;;10.76;100.00;100783.44;4993969;28;20029;-83
2022/11/08 07:45:55;;;;;;;19.80;3.58;;;11.80;99.90;;;10.73;100.00;100777.47;4979051;28;20057;-84
2022/11/08 07:48:27;;;;;;;18.27;3.30;;;11.80;99.90;;;10.73;100.00;100767.78;4994571;28;20165;-83
2022/11/08 07:50:53;;;;;;;16.83;3.40;;;11.80;99.90;;;10.76;100.00;100783.44;4992619;28;20034;-82
2022/11/08 07:53:22;;;;;;;14.35;3.20;;;11.80;99.90;;;10.80;100.00;100782.38;4993494;28;20092;-82
2022/11/08 07:55:57;;;;;;;12.30;2.97;;;11.80;99.90;;;10.84;100.00;100790.97;4978041;28;20053;-83
2022/11/08 07:58:23;;;;;;;10.15;2.67;;;11.90;99.90;;;10.90;100.00;100781.94;4996034;28;20026;-82
2022/11/08 08:00:49;;;;;;;14.32;2.90;;;11.90;99.90;;;10.93;100.00;100787.94;4992398;28;20168;-83
2022/11/08 08:03:15;;;;;;;12.00;2.80;;;12.00;99.90;;;10.99;100.00;100787.66;4976224;28;20045;-84
2022/11/08 08:05:51;;;;;;;14.93;3.30;;;12.00;99.90;;;11.07;100.00;100798.66;4994253;28;20034;-82
2022/11/08 08:08:17;;;;;;;11.75;2.75;;;12.00;99.90;;;11.12;100.00;100785.25;4994741;28;20030;-84
2022/11/08 08:10:43;;;;;;;11.80;2.60;;;12.10;99.90;;;11.18;100.00;100790.25;4977597;28;20034;-84
2022/11/08 08:13:16;;;;;;;15.13;3.40;;;12.20;99.90;;;11.25;100.00;100783.78;4996055;28;20121;-83
2022/11/08 08:15:42;;;;;;;14.23;3.17;;;12.20;99.90;;;11.32;100.00;100783.44;4989069;28;20022;-83
2022/11/08 08:18:09;;;;;;;13.90;3.90;;;12.30;99.90;;;11.34;100.00;100793.00;4999532;28;20116;-82
2022/11/08 08:20:45;;;;;;;14.18;3.53;;;12.30;99.90;;;11.38;100.00;100783.16;4981394;28;21018;-82
2022/11/08 08:23:11;;;;;;;20.17;2.97;;;12.30;99.90;;;11.43;100.00;100789.06;4999170;28;20406;-82
2022/11/08 08:25:37;;;;;;;17.23;2.35;;;12.40;99.90;;;11.48;100.00;100789.69;4980196;28;20688;-82
2022/11/08 08:28:04;;;;;;;10.52;2.53;;;12.40;99.90;;;11.56;100.00;100781.41;4999037;28;20092;-82
2022/11/08 08:30:39;;;;;;;11.00;2.90;;;12.50;99.90;;;11.61;100.00;100792.56;4997685;28;20040;-82
2022/11/08 08:33:15;;;;;;;10.35;2.22;;;12.60;99.90;;;11.65;100.00;100788.84;5013632;28;20176;-82
2022/11/08 08:35:42;;;;;;;13.82;2.67;;;;;;;11.73;100.00;100789.31;4997383;28;20092;-81
2022/11/08 08:38:10;;;;;;;12.98;2.53;;;12.70;99.90;;;11.75;100.00;100789.22;4997081;28;20091;-83
2022/11/08 08:40:45;;;;;;;13.25;2.67;;;12.70;99.90;;;11.82;100.00;100790.66;4980165;28;20025;-83
2022/11/08 08:43:11;;;;;;;9.23;2.47;;;12.80;99.90;;;11.83;100.00;100785.28;4998082;28;20041;-83
2022/11/08 08:45:36;;;;;;;11.48;2.25;;;12.80;99.90;;;11.83;100.00;100777.34;4997740;28;20029;-83
2022/11/08 08:48:03;;;;;;;12.38;2.90;;;12.80;99.90;;;11.88;100.00;100780.66;4997834;28;20030;-83
2022/11/08 08:50:39;;;;;;;12.00;2.28;;;12.90;99.90;;;11.94;100.00;100784.75;4994954;28;20038;-83
2022/11/08 08:53:05;;;;;;;15.75;2.85;;;12.90;99.90;;;11.95;100.00;100781.19;4995784;28;20044;-83
2022/11/08 08:55:34;;;;;;;9.05;2.35;;;12.90;99.90;;;12.05;100.00;100777.16;4980839;28;20113;-81
2022/11/08 08:58:02;;;;;;;10.13;2.35;;;13.00;99.90;;;12.07;100.00;100772.66;4998977;28;20661;-83
2022/11/08 09:00:32;;;;;;;14.13;2.80;;;13.10;99.90;;;12.17;100.00;100774.81;4997658;28;20323;-82
2022/11/08 09:03:08;;;;;;;9.70;2.53;;;13.10;99.90;;;12.15;100.00;100774.03;4978042;28;20134;-81
2022/11/08 09:05:34;;;;;;;10.18;2.05;;;13.20;99.90;;;12.14;100.00;100775.81;5018534;28;20101;-82
2022/11/08 09:08:01;;;;;;;13.90;2.20;;;13.20;99.90;;;12.22;99.79;100776.25;4980221;28;20042;-81
2022/11/08 09:10:35;;;;;;;14.57;2.33;;;13.20;99.90;;;12.30;99.87;100775.88;4995319;28;20108;-83
2022/11/08 09:13:04;;;;;;;10.73;1.98;;;13.30;99.90;;;12.39;99.35;100775.38;4995749;28;20026;-82
2022/11/08 09:18:35;;;;;;;14.90;2.60;;;13.50;99.90;;;12.54;97.54;100778.13;4998936;28;20042;-82
2022/11/08 09:21:03;;;;;;;11.77;2.38;;;13.50;99.90;;;12.65;97.53;100775.75;5014641;28;20030;-81
2022/11/08 09:23:42;;;;;;;11.90;2.40;;;13.60;99.90;;;12.75;97.10;100771.69;5014300;28;20508;-81
2022/11/08 09:26:10;;;;;;;6.70;1.55;;;13.70;99.90;;;12.78;96.27;100779.41;4980755;28;20034;-81
2022/11/08 09:28:36;;;;;;;15.43;1.65;;;13.80;99.90;;;12.88;95.40;100782.44;4995603;28;20129;-83
2022/11/08 09:31:12;;;;;;;9.13;1.90;;;13.80;99.90;;;12.94;95.45;100782.09;4980365;28;20548;-82
2022/11/08 09:33:40;;;;;;;13.80;2.40;;;13.90;99.90;;;13.01;95.00;100772.03;4980362;28;20034;-82
2022/11/08 09:36:13;;;;;;;10.85;2.25;;;14.00;99.90;;;13.08;94.37;100771.56;4993834;28;20042;-83
2022/11/08 09:38:43;;;;;;;15.20;2.28;;;14.10;99.90;;;13.13;93.50;100773.97;4985501;28;20042;-85
2022/11/08 09:41:36;;;;;;;17.13;2.50;;;14.10;99.90;;;13.20;93.09;100767.41;4980122;28;20095;-80
2022/11/08 09:44:46;;;;;;;11.25;2.42;;;14.20;99.90;;;13.28;92.31;100764.31;5014829;28;20033;-83
2022/11/08 09:47:47;;;;;;;14.75;7.53;;;14.30;99.90;;;13.40;91.82;100766.28;5006885;28;20701;-84
2022/11/08 09:50:40;;;;;;;12.05;2.03;;;14.40;99.90;;;13.47;91.34;100769.44;4995861;28;20034;-82
2022/11/08 09:53:36;;;;;;;14.07;2.10;;;14.40;99.90;;;13.55;91.15;100764.56;4993611;28;20169;-83
2022/11/08 09:56:22;;;;;;;14.48;1.88;;;14.50;99.90;;;13.60;90.35;100772.22;5012394;28;20037;-81
2022/11/08 09:59:00;;;;;;;6.93;1.83;;;14.60;99.90;;;13.58;89.91;100771.44;4993897;28;20034;-82
2022/11/08 10:01:36;;;;;;;8.93;1.83;;;14.60;99.90;;;13.54;89.22;100776.06;4996098;28;20437;-81
2022/11/08 10:04:24;;;;;;;10.93;1.70;;;14.50;99.90;;;13.54;89.13;100773.41;4977700;28;20104;-81
2022/11/08 10:07:12;;;;;;;8.00;2.30;;;14.50;99.90;;;13.53;89.05;100767.28;4996890;28;20148;-83
2022/11/08 10:10:06;;;;;;;7.30;2.20;;;14.50;99.90;;;13.48;89.05;100764.06;4994374;28;20029;-83
2022/11/08 10:12:48;;;;;;;10.30;2.20;;;14.50;99.90;;;13.52;89.23;100759.44;4985093;28;20045;-82
2022/11/08 10:15:40;;;;;;;8.45;1.83;;;14.50;99.90;;;13.51;89.31;100755.09;4996322;28;20034;-83
2022/11/08 10:19:27;;;;;;;12.30;1.92;;;14.50;99.90;;;13.54;88.98;100753.13;5011370;28;20380;-83
2022/11/08 10:22:18;;;;;;;7.35;1.88;;;14.50;99.90;;;13.56;88.88;100753.00;4931940;29;20663;-85
2022/11/08 10:25:23;;;;;;;12.00;2.40;;;14.60;99.90;;;13.56;88.48;100755.66;4957666;28;20039;-82
2022/11/08 10:28:03;;;;;;;8.52;1.98;;;14.60;99.90;;;13.54;88.05;100752.25;4996895;28;20398;-82
2022/11/08 10:30:59;;;;;;;13.07;1.90;;;14.60;99.90;;;13.59;88.09;100750.19;5024122;22;20053;-82
2022/11/08 10:34:00;;;;;;;10.73;2.00;;;14.60;99.90;;;13.54;87.93;100749.59;4990063;28;20109;-83
2022/11/08 10:36:53;;;;;;;12.60;2.28;;;14.60;99.90;;;13.57;88.17;100741.50;5024135;28;20036;-84
2022/11/08 10:39:33;;;;;;;9.32;2.05;;;14.60;99.90;;;13.62;87.87;100733.28;5004072;28;20727;-82
2022/11/08 10:42:30;;;;;;;12.80;2.08;;;14.60;99.90;;;13.66;87.90;100735.66;4989520;28;20045;-83
2022/11/08 10:45:10;;;;;;;7.85;2.10;;;14.60;99.90;;;13.68;87.66;100730.28;5006761;28;20104;-84
2022/11/08 10:48:05;;;;;;;10.93;2.03;;;14.60;99.90;;;13.62;86.99;100725.34;5010361;28;21319;-83
2022/11/08 10:51:01;;;;;;;12.38;2.00;;;14.60;99.90;;;13.61;87.40;100737.75;5004409;28;20125;-82
2022/11/08 10:53:56;;;;;;;13.18;2.25;;;14.70;99.90;;;13.72;87.20;100737.94;5015978;28;20045;-84
2022/11/08 10:56:23;;;;;;;11.73;2.40;;;14.70;99.90;;;13.90;87.12;100729.84;5024582;28;20129;-83